Time;durP1;ratioP1;P1;durP2;ratioP2;P2;SDS_P1;SDS_P2;PMS_P1;PMS_P2;Temp;Humidity;BMP_temperature;BMP_pressure;BME280_temperature;BME280_humidity;BME280_pressure;Samples;Min_cycle;Max_cycle;Signal;HPM_P1;HPM_P2
2023/05/19 00:01:23;;;;;;;;;;;9.80;47.70;;;;;;4994133;28;19914;-72
2023/05/19 00:03:51;;;;;;;;;;;9.80;47.90;;;;;;4994349;28;20373;-72
2023/05/19 00:06:20;;;;;;;;;;;9.80;48.00;;;;;;4994585;28;19910;-73
2023/05/19 00:08:46;;;;;;;;;;;9.70;48.20;;;;;;4994546;28;19909;-73
2023/05/19 00:11:11;;;;;;;;;;;9.70;48.30;;;;;;4994688;28;19917;-72
2023/05/19 00:13:37;;;;;;;;;;;9.60;48.70;;;;;;4994857;28;19917;-72
2023/05/19 00:16:02;;;;;;;;;;;9.60;48.90;;;;;;4994580;28;20412;-72
2023/05/19 00:18:28;;;;;;;;;;;9.60;48.90;;;;;;4994538;28;20456;-72
2023/05/19 00:20:54;;;;;;;;;;;9.60;48.90;;;;;;4994202;28;19914;-72
2023/05/19 00:23:19;;;;;;;;;;;9.50;48.90;;;;;;4994608;28;20346;-72
2023/05/19 00:25:45;;;;;;;;;;;9.50;48.90;;;;;;4976820;28;19949;-73
2023/05/19 00:28:10;;;;;;;;;;;9.50;49.00;;;;;;4994376;28;19922;-72
2023/05/19 00:30:35;;;;;;;;;;;9.40;49.10;;;;;;4976524;28;19969;-72
2023/05/19 00:33:01;;;;;;;;;;;9.40;49.30;;;;;;4994380;28;19918;-72
2023/05/19 00:35:26;;;;;;;;;;;9.40;49.40;;;;;;4994024;28;19956;-72
2023/05/19 00:37:52;;;;;;;;;;;9.40;49.50;;;;;;4994139;28;19925;-72
2023/05/19 00:40:17;;;;;;;;;;;9.40;49.80;;;;;;4976367;28;19964;-73
2023/05/19 00:42:43;;;;;;;;;;;9.30;49.60;;;;;;4994214;28;19924;-72
2023/05/19 00:45:08;;;;;;;;;;;9.30;49.50;;;;;;4994066;28;20366;-72
2023/05/19 00:47:34;;;;;;;;;;;9.30;49.50;;;;;;4993737;28;20053;-72
2023/05/19 00:49:59;;;;;;;;;;;9.30;49.50;;;;;;4993802;28;19959;-73
2023/05/19 00:52:25;;;;;;;;;;;9.30;49.60;;;;;;4993589;28;19918;-73
2023/05/19 00:54:51;;;;;;;;;;;9.20;49.80;;;;;;4994120;28;19933;-73
2023/05/19 00:57:17;;;;;;;;;;;9.20;50.00;;;;;;4976074;28;20020;-72
2023/05/19 00:59:43;;;;;;;;;;;9.10;50.20;;;;;;4993897;28;20417;-73
2023/05/19 01:02:08;;;;;;;;;;;9.10;50.20;;;;;;4995291;28;20008;-73
2023/05/19 01:04:35;;;;;;;;;;;9.00;50.10;;;;;;4994240;28;20320;-73
2023/05/19 01:07:00;;;;;;;;;;;9.00;50.10;;;;;;4994457;28;19972;-73
2023/05/19 01:09:26;;;;;;;;;;;9.00;50.10;;;;;;4994255;28;19910;-73
2023/05/19 01:11:52;;;;;;;;;;;9.00;50.10;;;;;;4994617;28;19979;-72
2023/05/19 01:14:18;;;;;;;;;;;8.90;50.20;;;;;;4994732;28;19972;-73
2023/05/19 01:16:52;;;;;;;;;;;8.90;50.30;;;;;;4993559;28;20381;-73
2023/05/19 01:19:18;;;;;;;;;;;8.90;50.50;;;;;;4993485;28;19959;-73
2023/05/19 01:22:11;;;;;;;;;;;8.80;50.60;;;;;;4994315;28;19961;-73
2023/05/19 01:24:37;;;;;;;;;;;8.80;50.80;;;;;;4993813;28;19910;-73
2023/05/19 01:27:22;;;;;;;;;;;8.70;51.80;;;;;;4994052;28;19918;-73
2023/05/19 01:30:07;;;;;;;;;;;8.70;51.50;;;;;;4994090;28;20496;-73
2023/05/19 01:32:33;;;;;;;;;;;8.70;51.20;;;;;;4994902;28;20020;-73
2023/05/19 01:34:59;;;;;;;;;;;8.60;51.10;;;;;;4994467;28;19933;-73
2023/05/19 01:37:26;;;;;;;;;;;8.60;51.10;;;;;;4994209;28;19940;-73
2023/05/19 01:39:52;;;;;;;;;;;8.50;51.10;;;;;;4994248;28;19913;-72
2023/05/19 01:42:18;;;;;;;;;;;8.50;51.10;;;;;;4994326;28;20357;-73
2023/05/19 01:44:44;;;;;;;;;;;8.40;51.10;;;;;;4994397;28;20392;-73
2023/05/19 01:47:09;;;;;;;;;;;8.40;51.10;;;;;;4993912;28;19921;-73
2023/05/19 01:49:35;;;;;;;;;;;8.40;51.30;;;;;;4994048;28;19916;-73
2023/05/19 01:52:00;;;;;;;;;;;8.40;51.50;;;;;;4994539;28;19919;-73
2023/05/19 01:54:26;;;;;;;;;;;8.40;51.60;;;;;;4994545;28;19917;-73
2023/05/19 01:56:51;;;;;;;;;;;8.30;51.60;;;;;;4994426;28;19925;-73
2023/05/19 01:59:52;;;;;;;;;;;8.20;51.70;;;;;;4994295;28;19921;-72
2023/05/19 02:02:41;;;;;;;;;;;8.20;51.90;;;;;;4934301;29;20427;-72
2023/05/19 02:05:12;;;;;;;;;;;8.20;52.00;;;;;;4990934;28;19910;-73
2023/05/19 02:07:43;;;;;;;;;;;8.10;52.10;;;;;;4976878;28;20008;-73
2023/05/19 02:10:22;;;;;;;;;;;8.10;52.00;;;;;;4994053;28;19972;-73
2023/05/19 02:12:52;;;;;;;;;;;8.10;51.90;;;;;;4994746;28;20000;-73
2023/05/19 02:15:21;;;;;;;;;;;8.10;51.80;;;;;;4994041;28;20295;-72
2023/05/19 02:17:50;;;;;;;;;;;8.00;51.90;;;;;;4976786;28;19925;-73
2023/05/19 02:20:16;;;;;;;;;;;8.00;52.10;;;;;;4994018;28;19913;-73
2023/05/19 02:22:42;;;;;;;;;;;8.00;52.30;;;;;;4994429;28;19925;-72
2023/05/19 02:25:08;;;;;;;;;;;8.00;52.30;;;;;;4994008;28;19953;-72
2023/05/19 02:27:35;;;;;;;;;;;7.90;52.10;;;;;;4994460;28;20011;-73
2023/05/19 02:30:01;;;;;;;;;;;7.90;52.10;;;;;;4998001;28;20358;-73
2023/05/19 02:32:26;;;;;;;;;;;7.90;52.00;;;;;;4997913;28;19964;-73
2023/05/19 02:34:52;;;;;;;;;;;7.80;52.20;;;;;;4997983;28;19910;-73
2023/05/19 02:37:17;;;;;;;;;;;7.80;52.30;;;;;;4997499;28;19918;-73
2023/05/19 02:39:43;;;;;;;;;;;7.80;52.20;;;;;;4997227;28;20312;-73
2023/05/19 02:42:09;;;;;;;;;;;7.80;52.20;;;;;;4997217;28;20293;-73
2023/05/19 02:44:34;;;;;;;;;;;7.80;52.20;;;;;;4997693;28;19917;-73
2023/05/19 02:47:00;;;;;;;;;;;7.80;52.10;;;;;;4997173;28;19975;-73
2023/05/19 02:49:26;;;;;;;;;;;7.70;52.30;;;;;;4997382;28;20270;-73
2023/05/19 02:51:52;;;;;;;;;;;7.70;52.40;;;;;;4997117;28;19918;-73
2023/05/19 02:54:17;;;;;;;;;;;7.70;52.50;;;;;;4997101;28;19909;-73
2023/05/19 02:56:42;;;;;;;;;;;7.70;52.70;;;;;;4997410;28;20074;-73
2023/05/19 02:59:08;;;;;;;;;;;7.70;52.80;;;;;;4997885;28;19924;-73
2023/05/19 03:01:33;;;;;;;;;;;7.70;52.70;;;;;;4997606;28;19932;-73
2023/05/19 03:03:59;;;;;;;;;;;7.70;52.60;;;;;;4997458;28;19910;-73
2023/05/19 03:06:24;;;;;;;;;;;7.70;52.60;;;;;;4997338;28;20348;-73
2023/05/19 03:08:50;;;;;;;;;;;7.60;52.80;;;;;;4997349;28;19913;-73
2023/05/19 03:11:15;;;;;;;;;;;7.60;52.90;;;;;;4979318;28;19910;-73
2023/05/19 03:13:41;;;;;;;;;;;7.60;53.10;;;;;;4997857;28;19917;-73
2023/05/19 03:16:07;;;;;;;;;;;7.60;53.20;;;;;;4979443;28;19913;-73
2023/05/19 03:18:33;;;;;;;;;;;7.70;53.30;;;;;;4978654;28;19952;-73
2023/05/19 03:20:58;;;;;;;;;;;7.70;53.30;;;;;;4996295;28;20020;-73
2023/05/19 03:23:25;;;;;;;;;;;7.60;53.30;;;;;;4996662;28;20334;-73
2023/05/19 03:25:52;;;;;;;;;;;7.60;53.10;;;;;;4996679;28;19913;-74
2023/05/19 03:28:18;;;;;;;;;;;7.60;53.10;;;;;;4997003;28;20327;-74
2023/05/19 03:30:44;;;;;;;;;;;7.60;53.10;;;;;;4996849;28;19976;-74
2023/05/19 03:33:09;;;;;;;;;;;7.60;53.20;;;;;;4979480;28;20008;-74
2023/05/19 03:35:35;;;;;;;;;;;7.60;53.40;;;;;;4996207;28;19965;-73
2023/05/19 03:38:00;;;;;;;;;;;7.60;53.50;;;;;;4996333;28;19922;-73
2023/05/19 03:40:26;;;;;;;;;;;7.70;53.70;;;;;;4995915;28;19913;-74
2023/05/19 03:42:53;;;;;;;;;;;7.70;53.60;;;;;;4996715;28;19965;-73
2023/05/19 03:45:18;;;;;;;;;;;7.70;53.40;;;;;;4996761;28;19960;-73
2023/05/19 03:47:45;;;;;;;;;;;7.70;53.40;;;;;;4997318;28;19922;-73
2023/05/19 03:50:10;;;;;;;;;;;7.70;53.40;;;;;;4997354;28;19914;-73
2023/05/19 03:52:37;;;;;;;;;;;7.70;53.40;;;;;;4996419;28;19973;-73
2023/05/19 03:55:03;;;;;;;;;;;7.70;53.60;;;;;;4996424;28;19917;-73
2023/05/19 03:57:28;;;;;;;;;;;7.70;53.60;;;;;;4996282;28;19917;-74
2023/05/19 03:59:54;;;;;;;;;;;7.70;53.60;;;;;;4995400;28;19961;-74
2023/05/19 04:02:19;;;;;;;;;;;7.80;53.60;;;;;;4996376;28;19921;-74
2023/05/19 04:04:45;;;;;;;;;;;7.90;53.80;;;;;;4996280;28;19913;-74
2023/05/19 04:07:10;;;;;;;;;;;8.00;54.00;;;;;;4996281;28;19921;-74
2023/05/19 04:09:36;;;;;;;;;;;8.30;54.40;;;;;;4995844;28;19937;-74
2023/05/19 04:12:01;;;;;;;;;;;8.60;54.80;;;;;;4995935;28;20437;-74
2023/05/19 04:14:27;;;;;;;;;;;8.90;55.10;;;;;;4995739;28;19914;-74
2023/05/19 04:16:53;;;;;;;;;;;9.30;55.40;;;;;;4996373;28;19918;-74
2023/05/19 04:19:18;;;;;;;;;;;9.70;55.40;;;;;;4995546;28;19910;-74
2023/05/19 04:21:44;;;;;;;;;;;10.00;55.50;;;;;;4995369;28;20012;-74
2023/05/19 04:24:09;;;;;;;;;;;10.50;55.70;;;;;;4995800;28;19910;-74
2023/05/19 04:26:37;;;;;;;;;;;10.90;55.70;;;;;;4995507;28;19918;-74
2023/05/19 04:29:03;;;;;;;;;;;11.30;55.60;;;;;;4995639;28;20392;-74
2023/05/19 04:31:28;;;;;;;;;;;11.80;55.50;;;;;;4995553;28;20366;-74
2023/05/19 04:33:54;;;;;;;;;;;12.20;55.30;;;;;;4995755;28;19916;-74
2023/05/19 04:36:20;;;;;;;;;;;12.60;55.20;;;;;;4995070;28;20219;-74
2023/05/19 04:38:46;;;;;;;;;;;13.00;55.00;;;;;;4994437;28;19937;-74
2023/05/19 04:41:12;;;;;;;;;;;13.40;54.80;;;;;;4995129;28;20337;-74
2023/05/19 04:43:40;;;;;;;;;;;13.80;54.70;;;;;;4977528;28;19977;-74
2023/05/19 04:46:06;;;;;;;;;;;14.20;53.90;;;;;;4994975;28;20416;-72
2023/05/19 04:48:32;;;;;;;;;;;14.40;53.40;;;;;;4994478;28;19930;-72
2023/05/19 04:51:00;;;;;;;;;;;14.70;53.70;;;;;;4994208;28;19965;-73
2023/05/19 04:53:27;;;;;;;;;;;15.10;53.80;;;;;;4995214;28;19918;-73
2023/05/19 04:55:52;;;;;;;;;;;15.50;53.50;;;;;;4994297;28;19910;-73
2023/05/19 04:58:18;;;;;;;;;;;15.90;53.20;;;;;;4994764;28;20266;-73
2023/05/19 05:00:44;;;;;;;;;;;16.30;51.90;;;;;;4994855;28;19914;-73
2023/05/19 05:03:11;;;;;;;;;;;16.60;51.80;;;;;;4994993;28;19924;-73
2023/05/19 05:05:36;;;;;;;;;;;17.00;51.40;;;;;;4994564;28;19916;-73
2023/05/19 05:08:02;;;;;;;;;;;17.30;50.50;;;;;;4995083;28;20353;-72
2023/05/19 05:10:27;;;;;;;;;;;17.70;50.40;;;;;;4994185;28;20005;-73
2023/05/19 05:12:53;;;;;;;;;;;18.10;49.60;;;;;;4994763;28;20369;-73
2023/05/19 05:15:18;;;;;;;;;;;18.50;48.70;;;;;;4994245;28;19949;-72
2023/05/19 05:17:44;;;;;;;;;;;19.00;47.60;;;;;;4994278;28;19918;-72
2023/05/19 05:20:10;;;;;;;;;;;19.40;46.80;;;;;;4993528;28;20008;-73
2023/05/19 05:22:37;;;;;;;;;;;19.80;46.20;;;;;;4993728;28;19918;-72
2023/05/19 05:25:03;;;;;;;;;;;20.30;45.80;;;;;;4993553;28;19914;-71
2023/05/19 05:27:28;;;;;;;;;;;20.80;45.10;;;;;;4993784;28;19925;-73
2023/05/19 05:29:54;;;;;;;;;;;21.30;44.10;;;;;;4993781;28;19956;-73
2023/05/19 05:32:22;;;;;;;;;;;21.70;43.60;;;;;;4993821;28;19926;-73
2023/05/19 05:34:47;;;;;;;;;;;22.10;42.70;;;;;;4993674;28;19997;-72
2023/05/19 05:37:13;;;;;;;;;;;22.60;41.00;;;;;;4993904;28;20344;-71
2023/05/19 05:39:39;;;;;;;;;;;23.00;40.10;;;;;;4991986;28;19968;-72
2023/05/19 05:42:04;;;;;;;;;;;23.30;39.40;;;;;;4993650;28;19921;-72
2023/05/19 05:44:30;;;;;;;;;;;23.70;38.80;;;;;;4992929;28;19921;-73
2023/05/19 05:46:55;;;;;;;;;;;24.00;38.20;;;;;;4990504;28;20271;-73
2023/05/19 05:49:21;;;;;;;;;;;24.40;37.30;;;;;;4992546;28;20008;-73
2023/05/19 05:51:46;;;;;;;;;;;24.70;36.40;;;;;;4993248;28;19926;-73
2023/05/19 05:54:12;;;;;;;;;;;25.00;35.90;;;;;;4993102;28;19918;-72
2023/05/19 05:56:38;;;;;;;;;;;25.30;35.30;;;;;;4989832;28;19934;-72
2023/05/19 05:59:04;;;;;;;;;;;25.60;34.70;;;;;;4992858;28;19910;-72
2023/05/19 06:01:30;;;;;;;;;;;25.80;33.60;;;;;;4992822;28;19949;-72
2023/05/19 06:03:55;;;;;;;;;;;26.10;33.20;;;;;;4996715;28;20361;-72
2023/05/19 06:06:20;;;;;;;;;;;26.40;33.20;;;;;;4978615;28;19972;-73
2023/05/19 06:08:46;;;;;;;;;;;26.80;32.70;;;;;;5003541;28;19984;-73
2023/05/19 06:11:11;;;;;;;;;;;27.10;32.10;;;;;;4997045;28;20008;-73
2023/05/19 06:13:37;;;;;;;;;;;27.40;31.70;;;;;;4997314;28;19921;-73
2023/05/19 06:16:03;;;;;;;;;;;27.80;31.40;;;;;;4996982;28;19910;-73
2023/05/19 06:18:28;;;;;;;;;;;28.10;30.80;;;;;;5000755;28;19917;-74
2023/05/19 06:20:54;;;;;;;;;;;28.40;30.00;;;;;;4996745;28;19913;-73
2023/05/19 06:23:19;;;;;;;;;;;28.70;29.60;;;;;;4996882;28;19918;-73
2023/05/19 06:25:45;;;;;;;;;;;29.00;29.10;;;;;;4996681;28;19937;-73
2023/05/19 06:28:10;;;;;;;;;;;29.30;28.70;;;;;;4993956;28;19972;-74
2023/05/19 06:30:36;;;;;;;;;;;29.50;28.30;;;;;;4996368;28;19929;-73
2023/05/19 06:33:02;;;;;;;;;;;29.80;27.50;;;;;;4996356;28;19918;-73
2023/05/19 06:35:27;;;;;;;;;;;30.00;26.80;;;;;;4996446;28;20370;-74
2023/05/19 06:37:55;;;;;;;;;;;30.20;26.40;;;;;;5001541;28;19972;-74
2023/05/19 06:40:21;;;;;;;;;;;30.50;26.70;;;;;;4996727;28;19918;-73
2023/05/19 06:42:46;;;;;;;;;;;30.70;26.00;;;;;;4996455;28;20396;-73
2023/05/19 06:45:11;;;;;;;;;;;31.00;25.70;;;;;;4996659;28;19910;-73
2023/05/19 06:47:37;;;;;;;;;;;31.30;24.80;;;;;;4984099;28;19930;-73
2023/05/19 06:50:02;;;;;;;;;;;31.50;24.40;;;;;;4996532;28;20008;-74
2023/05/19 06:52:28;;;;;;;;;;;31.60;24.10;;;;;;4996439;28;19929;-74
2023/05/19 06:54:53;;;;;;;;;;;31.80;23.80;;;;;;4996709;28;19917;-74
2023/05/19 06:57:19;;;;;;;;;;;32.00;23.50;;;;;;5001028;28;19917;-73
2023/05/19 06:59:45;;;;;;;;;;;32.20;22.80;;;;;;4978511;28;19910;-73
2023/05/19 07:02:11;;;;;;;;;;;32.20;22.90;;;;;;4996553;28;20002;-73
2023/05/19 07:04:36;;;;;;;;;;;32.20;22.10;;;;;;4977773;28;19920;-73
2023/05/19 07:07:02;;;;;;;;;;;32.20;22.10;;;;;;4992808;28;19921;-73
2023/05/19 07:09:27;;;;;;;;;;;32.30;22.40;;;;;;4995982;28;20317;-74
2023/05/19 07:11:55;;;;;;;;;;;32.50;22.50;;;;;;4995672;28;20384;-73
2023/05/19 07:14:20;;;;;;;;;;;32.80;22.70;;;;;;4994678;28;20374;-73
2023/05/19 07:16:45;;;;;;;;;;;33.20;22.50;;;;;;4992621;28;20004;-73
2023/05/19 07:19:11;;;;;;;;;;;33.60;22.20;;;;;;4995591;28;20294;-73
2023/05/19 07:21:36;;;;;;;;;;;33.90;22.00;;;;;;4995184;28;19918;-74
2023/05/19 07:24:02;;;;;;;;;;;34.20;21.20;;;;;;4995248;28;19920;-74
2023/05/19 07:26:27;;;;;;;;;;;34.10;20.40;;;;;;4992321;28;19918;-74
2023/05/19 07:28:53;;;;;;;;;;;34.00;20.10;;;;;;4994806;28;19921;-73
2023/05/19 07:31:18;;;;;;;;;;;33.80;20.40;;;;;;4994899;28;20000;-72
2023/05/19 07:33:44;;;;;;;;;;;34.00;20.70;;;;;;4994697;28;19972;-71
2023/05/19 07:36:09;;;;;;;;;;;34.20;20.70;;;;;;4976825;28;19933;-74
2023/05/19 07:38:35;;;;;;;;;;;34.40;20.50;;;;;;5000575;28;20016;-72
2023/05/19 07:41:01;;;;;;;;;;;34.50;19.90;;;;;;4995138;28;19947;-72
2023/05/19 07:43:26;;;;;;;;;;;34.40;20.10;;;;;;4995285;28;19914;-72
2023/05/19 07:45:52;;;;;;;;;;;34.50;20.40;;;;;;4977490;28;19917;-73
2023/05/19 07:48:21;;;;;;;;;;;34.80;20.60;;;;;;4999110;28;19922;-72
2023/05/19 07:50:46;;;;;;;;;;;35.10;20.30;;;;;;4994916;28;19910;-72
2023/05/19 07:53:12;;;;;;;;;;;35.20;20.20;;;;;;4994796;28;20277;-72
2023/05/19 07:55:37;;;;;;;;;;;35.40;19.50;;;;;;4995148;28;19910;-72
2023/05/19 07:58:03;;;;;;;;;;;35.30;19.00;;;;;;4998976;28;20320;-72
2023/05/19 08:00:28;;;;;;;;;;;35.00;19.00;;;;;;4996004;28;20748;-72
2023/05/19 08:02:55;;;;;;;;;;;35.00;19.50;;;;;;4995315;28;19921;-73
2023/05/19 08:05:21;;;;;;;;;;;35.10;19.20;;;;;;4994872;28;20293;-73
2023/05/19 08:07:46;;;;;;;;;;;35.00;19.00;;;;;;4991323;28;19918;-74
2023/05/19 08:10:12;;;;;;;;;;;34.90;19.20;;;;;;4976504;28;19910;-73
2023/05/19 08:12:37;;;;;;;;;;;35.00;19.20;;;;;;4994202;28;19981;-73
2023/05/19 08:15:03;;;;;;;;;;;35.20;19.30;;;;;;4994310;28;19941;-73
2023/05/19 08:17:29;;;;;;;;;;;35.60;19.40;;;;;;4998323;28;19913;-73
2023/05/19 08:19:54;;;;;;;;;;;36.00;19.20;;;;;;4994390;28;19921;-72
2023/05/19 08:22:19;;;;;;;;;;;36.00;18.20;;;;;;4994348;28;19921;-73
2023/05/19 08:24:45;;;;;;;;;;;35.80;18.00;;;;;;4994507;28;20048;-72
2023/05/19 08:27:10;;;;;;;;;;;35.70;18.50;;;;;;4982633;28;19924;-73
2023/05/19 08:29:37;;;;;;;;;;;36.00;18.90;;;;;;4997506;28;19921;-72
2023/05/19 08:32:02;;;;;;;;;;;36.30;18.70;;;;;;5004812;28;20349;-74
2023/05/19 08:34:28;;;;;;;;;;;36.60;18.40;;;;;;5000734;28;19909;-74
2023/05/19 08:36:56;;;;;;;;;;;36.80;18.50;;;;;;4997701;28;20277;-75
2023/05/19 08:39:25;;;;;;;;;;;37.10;17.90;;;;;;5003257;28;19960;-74
2023/05/19 08:41:51;;;;;;;;;;;37.00;17.80;;;;;;5002103;28;19925;-75
2023/05/19 08:44:17;;;;;;;;;;;37.20;17.40;;;;;;4999179;28;19917;-74
2023/05/19 08:46:42;;;;;;;;;;;37.00;17.40;;;;;;4989893;28;19925;-75
2023/05/19 08:49:11;;;;;;;;;;;36.80;17.30;;;;;;4992972;28;19910;-75
2023/05/19 08:51:53;;;;;;;;;;;37.00;17.80;;;;;;4992902;28;21285;-74
2023/05/19 08:54:21;;;;;;;;;;;37.30;17.60;;;;;;4975434;28;20366;-75
2023/05/19 08:56:47;;;;;;;;;;;37.00;16.40;;;;;;4977333;28;20913;-74
2023/05/19 08:59:13;;;;;;;;;;;36.90;16.60;;;;;;4996923;28;19910;-74
2023/05/19 09:01:41;;;;;;;;;;;37.00;15.90;;;;;;4993227;28;19949;-73
2023/05/19 09:04:07;;;;;;;;;;;37.00;16.20;;;;;;4992512;28;19910;-74
2023/05/19 09:06:32;;;;;;;;;;;37.10;15.90;;;;;;4990324;28;20538;-74
2023/05/19 09:08:58;;;;;;;;;;;36.80;16.00;;;;;;4991912;28;19964;-73
2023/05/19 09:11:26;;;;;;;;;;;36.90;16.60;;;;;;4992624;28;20409;-75
2023/05/19 09:13:52;;;;;;;;;;;36.90;15.70;;;;;;4974572;28;19914;-74
2023/05/19 09:16:18;;;;;;;;;;;36.10;15.80;;;;;;4973468;28;19960;-74
2023/05/19 09:18:56;;;;;;;;;;;35.50;16.40;;;;;;4993731;28;19913;-73
2023/05/19 09:21:31;;;;;;;;;;;34.80;16.60;;;;;;4992759;28;20004;-73
2023/05/19 09:23:58;;;;;;;;;;;33.70;17.10;;;;;;4975104;28;19914;-74
2023/05/19 09:26:23;;;;;;;;;;;32.70;18.00;;;;;;4973650;28;19918;-74
2023/05/19 09:28:49;;;;;;;;;;;31.90;18.70;;;;;;4990568;28;19921;-74
2023/05/19 09:31:15;;;;;;;;;;;31.30;19.20;;;;;;4975182;28;19925;-74
2023/05/19 09:33:41;;;;;;;;;;;30.80;19.90;;;;;;4992223;28;19921;-74
2023/05/19 09:36:07;;;;;;;;;;;30.80;20.30;;;;;;4991625;28;19909;-74
2023/05/19 09:38:33;;;;;;;;;;;31.00;20.70;;;;;;4996239;28;20443;-74
2023/05/19 09:40:59;;;;;;;;;;;31.50;20.50;;;;;;4992423;28;19918;-74
2023/05/19 09:43:28;;;;;;;;;;;31.80;20.30;;;;;;4992629;28;20008;-75
2023/05/19 09:46:06;;;;;;;;;;;31.80;19.60;;;;;;4992252;28;19917;-74
2023/05/19 09:48:33;;;;;;;;;;;31.50;19.10;;;;;;4998170;28;19961;-75
2023/05/19 09:51:02;;;;;;;;;;;31.10;19.30;;;;;;4992356;28;19910;-75
2023/05/19 09:53:29;;;;;;;;;;;30.80;19.70;;;;;;4992477;28;19921;-75
2023/05/19 09:55:57;;;;;;;;;;;30.40;19.50;;;;;;4992323;28;20044;-75
2023/05/19 09:58:23;;;;;;;;;;;30.20;19.30;;;;;;4971583;28;19924;-75
2023/05/19 10:00:49;;;;;;;;;;;30.00;19.20;;;;;;4974811;28;19913;-74
2023/05/19 10:03:16;;;;;;;;;;;29.90;19.40;;;;;;4992309;28;19930;-73
2023/05/19 10:05:42;;;;;;;;;;;30.10;20.10;;;;;;4992185;28;20293;-76
2023/05/19 10:08:09;;;;;;;;;;;29.80;20.60;;;;;;4974310;28;19924;-74
2023/05/19 10:10:35;;;;;;;;;;;29.80;21.40;;;;;;4992249;28;19917;-75
2023/05/19 10:13:02;;;;;;;;;;;30.20;21.50;;;;;;4992184;28;19921;-74
2023/05/19 10:15:28;;;;;;;;;;;30.30;21.30;;;;;;4991988;28;20354;-74
2023/05/19 10:17:55;;;;;;;;;;;30.10;21.20;;;;;;4988581;28;20280;-75
2023/05/19 10:20:20;;;;;;;;;;;29.70;21.30;;;;;;4992137;28;19920;-74
2023/05/19 10:22:47;;;;;;;;;;;29.30;21.40;;;;;;4974527;28;19922;-74
2023/05/19 10:25:14;;;;;;;;;;;28.90;21.70;;;;;;4992043;28;19910;-74
2023/05/19 10:27:43;;;;;;;;;;;28.60;22.00;;;;;;4988847;28;20258;-74
2023/05/19 10:30:20;;;;;;;;;;;28.50;22.30;;;;;;4992000;28;19910;-74
2023/05/19 10:32:47;;;;;;;;;;;28.50;22.50;;;;;;4992237;28;19922;-75
2023/05/19 10:35:15;;;;;;;;;;;28.70;22.10;;;;;;4992055;28;19941;-74
2023/05/19 10:38:07;;;;;;;;;;;28.70;22.10;;;;;;4980028;28;19929;-74
2023/05/19 10:40:35;;;;;;;;;;;28.90;22.10;;;;;;4969036;28;20039;-74
2023/05/19 10:43:23;;;;;;;;;;;29.00;21.60;;;;;;4991541;28;19922;-74
2023/05/19 10:45:52;;;;;;;;;;;29.00;21.80;;;;;;4991944;28;19914;-74
2023/05/19 10:48:19;;;;;;;;;;;29.00;22.00;;;;;;4997259;28;20500;-75
2023/05/19 10:50:45;;;;;;;;;;;29.30;22.00;;;;;;4977736;28;19910;-74
2023/05/19 10:53:18;;;;;;;;;;;29.50;21.50;;;;;;4995543;28;20451;-74
2023/05/19 10:55:45;;;;;;;;;;;29.40;21.40;;;;;;4995834;28;19910;-75
2023/05/19 10:58:10;;;;;;;;;;;29.30;21.50;;;;;;4978794;28;19922;-75
2023/05/19 11:00:37;;;;;;;;;;;29.50;21.70;;;;;;4995252;28;20012;-75
2023/05/19 11:03:13;;;;;;;;;;;29.90;21.40;;;;;;4995187;28;20012;-75
2023/05/19 11:05:39;;;;;;;;;;;30.30;20.70;;;;;;4995293;28;20395;-75
2023/05/19 11:08:06;;;;;;;;;;;30.70;19.50;;;;;;5001886;28;19918;-75
2023/05/19 11:10:32;;;;;;;;;;;30.90;19.00;;;;;;4995356;28;19936;-76
2023/05/19 11:12:58;;;;;;;;;;;31.00;18.40;;;;;;4978306;28;19918;-73
2023/05/19 11:15:26;;;;;;;;;;;31.00;18.30;;;;;;4977635;28;20004;-73
2023/05/19 11:17:52;;;;;;;;;;;31.20;17.90;;;;;;4991649;28;19925;-74
2023/05/19 11:20:20;;;;;;;;;;;31.60;18.00;;;;;;4994857;28;20316;-74
2023/05/19 11:22:59;;;;;;;;;;;31.90;17.40;;;;;;4994485;28;19961;-74
2023/05/19 11:25:40;;;;;;;;;;;32.10;17.00;;;;;;4994717;28;19986;-74
2023/05/19 11:28:05;;;;;;;;;;;32.00;17.40;;;;;;4996012;28;19964;-74
2023/05/19 11:30:31;;;;;;;;;;;32.00;17.30;;;;;;4977324;28;20374;-74
2023/05/19 11:32:56;;;;;;;;;;;32.10;17.50;;;;;;4994684;28;20339;-75
2023/05/19 11:35:26;;;;;;;;;;;32.30;17.80;;;;;;4977297;28;20409;-75
2023/05/19 11:37:53;;;;;;;;;;;32.20;16.70;;;;;;4996260;28;19922;-75
2023/05/19 11:40:20;;;;;;;;;;;32.10;17.20;;;;;;4995064;28;19968;-74
2023/05/19 11:42:45;;;;;;;;;;;32.10;17.40;;;;;;4994360;28;19914;-75
2023/05/19 11:45:11;;;;;;;;;;;32.20;17.20;;;;;;4994806;28;19968;-75
2023/05/19 11:47:37;;;;;;;;;;;32.00;16.60;;;;;;4993832;28;19933;-76
2023/05/19 11:50:02;;;;;;;;;;;31.90;16.90;;;;;;5013984;28;20432;-74
2023/05/19 11:52:28;;;;;;;;;;;31.60;17.10;;;;;;5012248;28;20366;-74
2023/05/19 11:54:53;;;;;;;;;;;31.00;17.40;;;;;;4994422;28;19925;-73
2023/05/19 11:57:19;;;;;;;;;;;30.50;18.00;;;;;;4995536;28;19917;-74
2023/05/19 11:59:48;;;;;;;;;;;30.10;18.40;;;;;;4993929;28;20375;-74
2023/05/19 12:02:20;;;;;;;;;;;29.60;19.00;;;;;;4994244;28;19914;-74
2023/05/19 12:04:46;;;;;;;;;;;29.30;19.20;;;;;;4974786;28;20418;-75
2023/05/19 12:07:16;;;;;;;;;;;29.10;19.40;;;;;;4981596;28;19918;-74
2023/05/19 12:09:42;;;;;;;;;;;29.10;19.60;;;;;;4994275;28;19918;-74
2023/05/19 12:12:08;;;;;;;;;;;29.30;19.80;;;;;;4994202;28;20273;-74
2023/05/19 12:14:34;;;;;;;;;;;29.10;19.50;;;;;;4993940;28;19922;-74
2023/05/19 12:17:10;;;;;;;;;;;28.80;19.70;;;;;;4991076;28;19910;-75
2023/05/19 12:19:36;;;;;;;;;;;28.70;19.90;;;;;;4993667;28;19918;-76
2023/05/19 12:22:02;;;;;;;;;;;28.60;19.70;;;;;;4993899;28;20262;-75
2023/05/19 12:24:28;;;;;;;;;;;28.70;19.80;;;;;;4993700;28;19918;-75
2023/05/19 12:27:03;;;;;;;;;;;29.00;19.80;;;;;;4991378;28;19918;-75
2023/05/19 12:29:30;;;;;;;;;;;29.40;19.80;;;;;;4993835;28;19917;-75
2023/05/19 12:31:55;;;;;;;;;;;29.50;19.30;;;;;;4976391;28;20438;-75
2023/05/19 12:34:21;;;;;;;;;;;29.10;19.50;;;;;;4993516;28;20031;-75
2023/05/19 12:36:47;;;;;;;;;;;28.50;20.00;;;;;;4997814;28;19909;-74
2023/05/19 12:39:13;;;;;;;;;;;28.30;20.40;;;;;;4992161;28;20404;-74
2023/05/19 12:41:38;;;;;;;;;;;28.30;20.50;;;;;;4993511;28;19913;-75
2023/05/19 12:44:12;;;;;;;;;;;28.40;20.50;;;;;;4975697;28;20015;-75
2023/05/19 12:46:39;;;;;;;;;;;28.50;20.20;;;;;;4991836;28;19972;-73
2023/05/19 12:49:04;;;;;;;;;;;28.60;19.70;;;;;;4991403;28;19922;-75
2023/05/19 12:51:29;;;;;;;;;;;28.70;19.80;;;;;;4975803;28;19917;-74
2023/05/19 12:53:55;;;;;;;;;;;28.50;20.20;;;;;;4993136;28;19918;-74
2023/05/19 12:56:25;;;;;;;;;;;28.20;20.50;;;;;;4974341;28;19936;-74
2023/05/19 12:58:54;;;;;;;;;;;27.80;20.90;;;;;;4993632;28;19929;-74
2023/05/19 13:01:21;;;;;;;;;;;27.70;21.20;;;;;;4993286;28;19949;-75
2023/05/19 13:03:46;;;;;;;;;;;27.70;21.60;;;;;;4992821;28;20377;-75
2023/05/19 13:06:12;;;;;;;;;;;27.70;21.40;;;;;;4991619;28;19910;-75
2023/05/19 13:08:38;;;;;;;;;;;27.80;21.50;;;;;;4998647;28;19922;-74
2023/05/19 13:11:04;;;;;;;;;;;27.70;21.40;;;;;;5012598;28;19956;-74
2023/05/19 13:13:29;;;;;;;;;;;27.30;21.50;;;;;;5003127;28;20390;-74
2023/05/19 13:15:55;;;;;;;;;;;27.10;22.00;;;;;;4993966;28;20370;-74
2023/05/19 13:18:20;;;;;;;;;;;27.00;22.20;;;;;;4990014;28;19913;-74
2023/05/19 13:20:48;;;;;;;;;;;26.80;22.40;;;;;;4976420;28;19914;-74
2023/05/19 13:23:14;;;;;;;;;;;26.60;22.70;;;;;;4993373;28;19914;-74
2023/05/19 13:25:40;;;;;;;;;;;26.30;22.70;;;;;;4976441;28;19917;-74
2023/05/19 13:28:06;;;;;;;;;;;26.30;23.00;;;;;;4989958;28;19960;-74
2023/05/19 13:30:32;;;;;;;;;;;26.50;23.20;;;;;;4993794;28;20433;-74
2023/05/19 13:32:58;;;;;;;;;;;26.70;22.90;;;;;;4992906;28;19910;-74
2023/05/19 13:35:23;;;;;;;;;;;26.90;22.60;;;;;;4976007;28;20037;-73
2023/05/19 13:37:49;;;;;;;;;;;27.10;22.60;;;;;;4990262;28;20281;-74
2023/05/19 13:40:15;;;;;;;;;;;27.50;22.50;;;;;;4993209;28;19929;-73
2023/05/19 13:42:41;;;;;;;;;;;27.50;22.00;;;;;;4992915;28;20369;-74
2023/05/19 13:45:07;;;;;;;;;;;27.20;22.00;;;;;;4993463;28;19918;-73
2023/05/19 13:47:32;;;;;;;;;;;27.10;22.40;;;;;;4998681;28;20432;-73
2023/05/19 13:49:58;;;;;;;;;;;27.00;22.30;;;;;;4993514;28;19918;-73
2023/05/19 13:52:23;;;;;;;;;;;27.10;22.70;;;;;;4992677;28;20292;-73
2023/05/19 13:54:49;;;;;;;;;;;27.10;22.50;;;;;;4993155;28;20342;-73
2023/05/19 13:57:15;;;;;;;;;;;26.90;22.30;;;;;;4990243;28;19922;-74
2023/05/19 13:59:41;;;;;;;;;;;26.60;22.60;;;;;;4992413;28;20357;-74
2023/05/19 14:02:07;;;;;;;;;;;26.30;22.80;;;;;;4993078;28;19913;-74
2023/05/19 14:04:35;;;;;;;;;;;26.10;23.20;;;;;;4975189;28;19922;-74
2023/05/19 14:07:00;;;;;;;;;;;26.10;23.20;;;;;;4991051;28;19957;-74
2023/05/19 14:09:26;;;;;;;;;;;25.90;23.40;;;;;;4993950;28;20353;-74
2023/05/19 14:11:51;;;;;;;;;;;25.80;22.80;;;;;;4992823;28;19909;-73
2023/05/19 14:14:17;;;;;;;;;;;25.80;23.00;;;;;;4974740;28;19964;-73
2023/05/19 14:16:42;;;;;;;;;;;26.10;23.00;;;;;;4991803;28;19910;-73
2023/05/19 14:19:07;;;;;;;;;;;26.20;22.80;;;;;;4991593;28;20001;-74